Latest Weather Observations for Cobar

IDN60801

Issued at 7:05 pm EST Wednesday 30 July 2014 (issued every 30 minutes, with the page automatically refreshed every 10 minutes)

About weather observations | Map of weather stations | Latest weather observations for NSW | Other Formats
Station Details ID: 048027 Name: COBAR MO Lat: -31.48 Lon: 145.83 Height: 260.0 m
Data from the previous 72 hours. | See also: Recent months at Cobar
Date/Time
EST
Temp
°C
App
Temp
°C
Dew
Point
Rel
Hum
%
Delta-T
°C
Wind Press
QNH
hPa
Press
MSL
hPa
Rain
since 9 am
mm
Dir
 
Spd
km/h
Gust
km/h
Spd
kts
Gust
kts
30/07:00pm 14.6 11.4 0.7 38 6.0 NW 7 9 4 5 1019.3 - 0.0
30/06:30pm 16.3 12.8 1.5 36 6.6 WNW 9 11 5 6 1019.0 - 0.0
30/06:00pm 17.9 14.3 0.6 31 7.7 WNW 9 11 5 6 1018.8 1019.1 0.0
30/05:30pm 20.0 15.4 -1.0 24 9.2 WNW 13 19 7 10 1018.8 - 0.0
30/05:00pm 20.9 15.5 -1.5 22 9.8 WNW 17 22 9 12 1018.7 - 0.0
30/04:30pm 21.9 16.9 -1.4 21 10.3 WNW 15 20 8 11 1018.6 - 0.0
30/04:00pm 22.2 16.7 -2.0 19 10.6 W 17 28 9 15 1018.4 - 0.0
30/03:30pm 22.4 17.0 -1.1 21 10.5 W 17 32 9 17 1018.5 - 0.0
30/03:00pm 22.4 16.7 -0.7 21 10.4 W 19 30 10 16 1018.7 1019.0 0.0
30/02:30pm 22.5 17.3 -0.1 22 10.3 WNW 17 28 9 15 1018.9 - 0.0
30/02:00pm 21.7 16.5 0.1 23 9.8 WNW 17 24 9 13 1019.1 - 0.0
30/01:30pm 21.4 16.5 1.7 27 9.2 NW 17 26 9 14 1019.6 - 0.0
30/01:00pm 21.0 16.9 2.0 28 8.9 WNW 13 24 7 13 1020.1 - 0.0
30/12:30pm 21.0 16.4 1.7 28 9.0 WNW 15 24 8 13 1021.0 - 0.0
30/12:00pm 20.5 16.0 2.1 29 8.6 NW 15 22 8 12 1021.6 1021.9 0.0
30/11:30am 20.1 16.1 3.0 32 8.1 WNW 13 20 7 11 1022.1 - 0.0
30/11:00am 19.6 16.9 3.7 35 7.6 WNW 7 15 4 8 1022.4 - 0.0
30/10:30am 19.0 16.1 2.4 33 7.7 NNW 7 11 4 6 1022.7 - 0.0
30/10:00am 17.2 13.6 0.7 33 7.3 N 9 13 5 7 1022.7 - 0.0
30/09:30am 16.0 12.9 0.3 34 6.8 N 6 9 3 5 1022.8 - 0.0
30/09:00am 13.9 10.7 -0.4 37 6.0 N 6 6 3 3 1022.8 1023.1 0.0
30/08:30am 11.6 8.2 -0.7 42 5.0 NNE 7 7 4 4 1022.6 - 0.0
30/08:00am 9.7 6.4 -0.2 50 4.0 N 7 9 4 5 1022.4 - 0.0
30/07:30am 8.4 5.6 -0.4 54 3.5 WSW 4 6 2 3 1022.2 - 0.0
30/07:00am 9.1 5.4 0.2 53 3.6 WSW 9 9 5 5 1021.9 - 0.0
30/06:30am 10.0 6.3 -0.1 49 4.1 W 9 11 5 6 1021.6 - 0.0
30/06:00am 10.1 5.9 -0.6 47 4.3 W 11 13 6 7 1021.5 1021.8 0.0
30/05:30am 10.0 6.2 -1.1 46 4.4 W 9 11 5 6 1021.1 - 0.0
30/05:00am 10.4 6.5 -1.5 43 4.7 W 9 11 5 6 1020.8 - 0.0
30/04:30am 10.6 6.6 -1.9 41 4.9 WNW 9 11 5 6 1020.4 - 0.0
30/04:00am 9.6 5.8 -0.7 48 4.1 W 9 13 5 7 1020.4 - 0.0
30/03:30am 10.3 6.0 -2.0 42 4.8 W 11 15 6 8 1020.4 - 0.0
30/03:00am 10.9 6.5 -2.1 40 5.1 W 11 17 6 9 1020.6 1020.9 0.0
30/02:30am 9.4 5.0 -2.4 43 4.5 WNW 11 13 6 7 1020.8 - 0.0
30/02:00am 10.1 5.7 -2.7 40 4.9 WNW 11 13 6 7 1021.0 - 0.0
30/01:57am 9.9 5.5 -2.7 41 4.8 WNW 11 13 6 7 1021.0 - 0.0
30/01:38am 10.0 6.0 -2.1 42 4.7 NW 9 11 5 6 1021.0 - 0.0
30/01:30am 10.0 5.9 -2.9 40 4.9 NW 9 11 5 6 1021.0 - 0.0
30/01:00am 11.3 6.9 -2.2 39 5.3 WNW 11 13 6 7 1021.0 - 0.0
30/12:30am 11.9 7.0 -3.1 35 5.8 WNW 13 15 7 8 1020.9 - 0.0
30/12:00am 11.3 7.1 -3.8 34 5.7 NW 9 13 5 7 1020.8 1021.1 0.0
 
Date/Time
EST
Temp
°C
App
Temp
°C
Dew
Point
Rel
Hum
%
Delta-T
°C
Wind Press
QNH
hPa
Press
MSL
hPa
Rain
since 9 am
mm
Dir
 
Spd
km/h
Gust
km/h
Spd
kts
Gust
kts
29/11:30pm 11.9 7.4 -3.1 35 5.8 NW 11 13 6 7 1020.8 - 0.0
29/11:00pm 12.7 8.1 -4.1 31 6.4 NW 11 13 6 7 1020.8 - 0.0
29/10:30pm 12.9 7.9 -4.1 30 6.5 NW 13 15 7 8 1020.9 - 0.0
29/10:00pm 12.8 7.8 -3.9 31 6.4 NNW 13 15 7 8 1020.7 - 0.0
29/09:30pm 13.6 8.6 -4.0 29 6.8 NNW 13 15 7 8 1020.4 - 0.0
29/09:00pm 14.1 9.5 -3.9 28 7.0 NW 11 13 6 7 1020.3 1020.6 0.0
29/08:30pm 14.0 9.0 -4.1 28 7.0 NNW 13 15 7 8 1020.3 - 0.0
29/08:00pm 13.8 9.3 -3.6 29 6.8 NNW 11 13 6 7 1020.0 - 0.0
29/07:30pm 14.8 10.2 -4.2 26 7.4 NNW 11 13 6 7 1019.9 - 0.0
29/07:00pm 14.8 10.7 -2.9 29 7.1 NNW 9 11 5 6 1019.9 - 0.0
29/06:30pm 15.7 11.8 -1.6 30 7.2 NW 9 9 5 5 1019.6 - 0.0
29/06:00pm 17.6 13.7 -1.5 27 8.1 NW 9 9 5 5 1019.4 1019.7 0.0
29/05:30pm 20.0 15.4 -4.0 19 9.9 NW 11 17 6 9 1019.1 - 0.0
29/05:00pm 21.1 15.6 -5.7 16 10.8 WNW 15 24 8 13 1018.9 - 0.0
29/04:30pm 21.7 15.3 -6.7 14 11.3 WNW 19 26 10 14 1018.6 - 0.0
29/04:00pm 22.3 15.9 -6.7 14 11.6 WNW 19 26 10 14 1018.7 - 0.0
29/03:30pm 22.4 16.0 -6.4 14 11.6 W 19 30 10 16 1018.7 - 0.0
29/03:00pm 22.5 16.6 -6.1 14 11.6 W 17 24 9 13 1018.8 1019.1 0.0
29/02:30pm 22.1 15.5 -7.3 13 11.6 W 20 28 11 15 1018.9 - 0.0
29/02:00pm 22.7 16.8 -6.1 14 11.7 WNW 17 24 9 13 1019.0 - 0.0
29/01:30pm 21.9 15.4 -5.6 15 11.2 WSW 20 30 11 16 1019.4 - 0.0
29/01:00pm 22.4 16.1 -4.3 16 11.2 WNW 20 32 11 17 1019.9 - 0.0
29/12:30pm 21.3 14.9 -5.2 16 10.8 W 20 28 11 15 1020.2 - 0.0
29/12:00pm 21.7 14.9 -5.2 16 11.0 WNW 22 32 12 17 1020.6 1020.9 0.0
29/11:30am 20.3 13.1 -5.3 17 10.3 NW 24 32 13 17 1021.1 - 0.0
29/11:00am 20.0 13.2 -5.5 17 10.2 NW 22 33 12 18 1021.3 - 0.0
29/10:30am 19.3 13.0 -6.3 17 10.0 WNW 19 26 10 14 1021.9 - 0.0
29/10:00am 18.1 12.2 -5.3 20 9.2 WNW 17 24 9 13 1022.3 - 0.0
29/09:30am 16.8 11.4 -4.5 23 8.4 NW 15 20 8 11 1022.3 - 0.0
29/09:00am 15.7 11.2 -3.3 27 7.6 NW 11 17 6 9 1022.1 1022.4 0.0
29/08:30am 12.9 8.0 -3.3 32 6.3 NNW 13 15 7 8 1021.8 - 0.0
29/08:00am 10.2 5.8 -2.6 40 4.9 NNW 11 13 6 7 1021.8 - 0.0
29/07:30am 7.9 3.1 -2.2 49 3.8 N 13 15 7 8 1021.6 - 0.0
29/07:00am 6.9 2.2 -1.9 53 3.3 N 13 13 7 7 1021.5 - 0.0
29/06:30am 7.3 3.0 -1.7 53 3.4 N 11 13 6 7 1021.3 - 0.0
29/06:00am 8.3 3.9 -2.3 47 4.0 N 11 15 6 8 1021.0 1021.3 0.0
29/05:30am 7.2 2.5 -2.1 51 3.5 N 13 17 7 9 1020.7 - 0.0
29/05:00am 7.0 2.3 -2.1 52 3.4 NNE 13 19 7 10 1020.4 - 0.0
29/04:30am 7.8 3.4 -2.7 47 3.9 N 11 13 6 7 1020.1 - 0.0
29/04:00am 8.7 4.3 -2.7 44 4.3 N 11 13 6 7 1020.1 - 0.0
29/03:30am 8.8 4.4 -2.2 46 4.2 N 11 13 6 7 1020.0 - 0.0
29/03:00am 8.4 4.1 -1.8 48 3.9 N 11 13 6 7 1019.9 1020.2 0.0
29/02:30am 7.8 3.1 -1.6 51 3.6 N 13 15 7 8 1019.8 - 0.0
29/02:00am 8.2 3.5 -2.1 48 3.9 NNE 13 15 7 8 1019.9 - 0.0
29/01:30am 8.2 3.5 -2.1 48 3.9 N 13 15 7 8 1020.0 - 0.0
29/01:00am 9.5 5.1 -2.6 42 4.6 N 11 13 6 7 1020.1 - 0.0
29/12:30am 10.1 5.7 -2.3 42 4.8 N 11 13 6 7 1020.4 - 0.0
29/12:00am 9.9 5.6 -1.9 43 4.6 NNW 11 13 6 7 1020.7 1021.0 0.0
 
Date/Time
EST
Temp
°C
App
Temp
°C
Dew
Point
Rel
Hum
%
Delta-T
°C
Wind Press
QNH
hPa
Press
MSL
hPa
Rain
since 9 am
mm
Dir
 
Spd
km/h
Gust
km/h
Spd
kts
Gust
kts
28/11:30pm 9.8 5.4 -2.1 43 4.6 NNW 11 13 6 7 1020.7 - 0.0
28/11:00pm 10.2 5.8 -2.2 42 4.8 NNW 11 13 6 7 1020.9 - 0.0
28/10:30pm 10.7 6.3 -2.5 39 5.1 NNW 11 13 6 7 1021.1 - 0.0
28/10:00pm 11.0 6.7 -2.0 40 5.1 NNW 11 11 6 6 1021.1 - 0.0
28/09:30pm 11.3 7.0 -1.5 41 5.1 NNW 11 11 6 6 1021.1 - 0.0
28/09:00pm 12.0 8.1 -1.4 39 5.4 NNW 9 11 5 6 1021.0 1021.3 0.0
28/08:30pm 12.3 8.4 -1.7 38 5.6 N 9 9 5 5 1020.9 - 0.0
28/08:00pm 12.9 9.0 -1.4 37 5.8 N 9 9 5 5 1020.6 - 0.0
28/07:30pm 13.4 9.0 -2.4 33 6.3 N 11 13 6 7 1020.2 - 0.0
28/07:00pm 13.6 9.6 -2.4 33 6.4 N 9 13 5 7 1020.2 - 0.0
28/06:30pm 14.6 10.6 -2.1 31 6.8 N 9 11 5 6 1020.1 - 0.0
28/06:00pm 15.3 11.4 -1.6 31 7.0 NW 9 11 5 6 1020.0 1020.3 0.0
28/05:30pm 17.7 13.1 -4.2 22 8.8 NNW 11 19 6 10 1019.8 - 0.0
28/05:00pm 18.7 14.1 -3.8 21 9.2 NW 11 20 6 11 1019.8 - 0.0
28/04:30pm 19.4 14.5 -3.1 21 9.4 NNW 13 17 7 9 1019.8 - 0.0
28/04:00pm 19.9 15.1 -2.9 21 9.6 NW 13 24 7 13 1019.8 - 0.0
28/03:30pm 20.3 14.7 -3.3 20 9.9 NW 17 22 9 12 1019.7 - 0.0
28/03:00pm 20.2 15.3 -3.1 20 9.8 WNW 13 17 7 9 1019.9 1020.2 0.0
28/02:30pm 20.0 15.4 -1.0 24 9.2 NNW 13 24 7 13 1020.3 - 0.0
28/02:00pm 19.5 14.2 -0.9 25 8.9 NW 17 26 9 14 1020.8 - 0.0
28/01:30pm 19.5 14.9 -1.3 24 9.0 NW 13 26 7 14 1021.1 - 0.0
28/01:00pm 18.7 12.2 -2.1 24 8.8 NW 22 30 12 16 1021.6 - 0.0
28/12:30pm 18.8 13.4 -1.5 25 8.7 W 17 26 9 14 1022.1 - 0.0
28/12:00pm 18.4 12.5 -1.9 25 8.6 NW 19 28 10 15 1022.6 1022.9 0.0
28/11:30am 17.9 12.9 -1.0 27 8.1 W 15 24 8 13 1023.1 - 0.0
28/11:00am 18.4 13.5 -0.4 28 8.2 NW 15 20 8 11 1023.6 - 0.0
28/10:30am 17.2 13.6 0.3 32 7.4 NW 9 15 5 8 1023.8 - 0.0
28/10:00am 16.5 12.9 0.8 34 6.9 N 9 13 5 7 1023.8 - 0.0
28/09:30am 14.3 10.4 0.9 40 5.8 N 11 15 6 8 1023.7 - 0.0
28/09:00am 12.5 8.6 1.0 45 4.9 N 11 15 6 8 1023.6 1023.9 0.0
28/08:30am 9.9 6.1 1.6 56 3.5 N 11 15 6 8 1023.4 - -
28/08:00am 7.7 3.5 1.6 65 2.5 N 13 17 7 9 1023.5 - -
28/07:30am 6.4 2.2 1.7 72 1.9 NNE 13 15 7 8 1023.5 - -
28/07:00am 6.0 1.4 1.3 72 1.9 NNE 15 17 8 9 1023.3 - -
28/06:30am 6.1 2.2 1.4 72 1.9 NNE 11 11 6 6 1023.4 - -
28/06:00am 5.6 2.1 1.1 73 1.8 NNE 9 9 5 5 1023.3 1023.6 -
28/05:30am - - - - - - - - - - - - -
28/05:00am - - - - - - - - - - - - -
28/04:30am - - - - - - - - - - - - -
28/04:00am - - - - - - - - - - - - -
28/03:30am - - - - - - - - - - - - -
28/03:00am - - - - - - - - - - - - -
28/02:30am - - - - - - - - - - - - -
28/02:00am - - - - - - - - - - - - -
28/01:30am - - - - - - - - - - - - -
28/01:00am - - - - - - - - - - - - -
28/12:30am - - - - - - - - - - - - -
28/12:00am - - - - - - - - - - - - -
 
Date/Time
EST
Temp
°C
App
Temp
°C
Dew
Point
Rel
Hum
%
Delta-T
°C
Wind Press
QNH
hPa
Press
MSL
hPa
Rain
since 9 am
mm
Dir
 
Spd
km/h
Gust
km/h
Spd
kts
Gust
kts
27/11:30pm - - - - - - - - - - - - -
27/11:00pm - - - - - - - - - - - - -
27/10:30pm - - - - - - - - - - - - -
27/10:00pm - - - - - - - - - - - - -
27/09:30pm - - - - - - - - - - - - -
27/09:00pm - - - - - - - - - - - - -
27/08:30pm - - - - - - - - - - - - -
27/08:00pm - - - - - - - - - - - - -
27/07:30pm - - - - - - - - - - - - -

Other Formats:

Comma delimited format used in spreadsheet applications
http://www.bom.gov.au/fwo/IDN60801/IDN60801.94711.axf

JavaScript Object Notation format (JSON) in row-major order
http://www.bom.gov.au/fwo/IDN60801/IDN60801.94711.json